createdAt,value
2022-11-05T00:02:48.475Z,100629.15
2022-11-05T00:07:09.032Z,100630.52
2022-11-05T00:11:15.241Z,100637.29
2022-11-05T00:15:36.105Z,100641.46
2022-11-05T00:19:34.794Z,100640.91
2022-11-05T00:23:51.948Z,100639.49
2022-11-05T00:27:53.323Z,100635.46
2022-11-05T00:31:52.755Z,100636.51
2022-11-05T00:35:51.277Z,100639.11
2022-11-05T00:39:50.013Z,100639.98
2022-11-05T00:44:07.276Z,100637.48
2022-11-05T00:48:24.971Z,100643.25
2022-11-05T00:52:53.826Z,100642.55
2022-11-05T00:57:04.914Z,100647.65
2022-11-05T01:00:44.154Z,100646.80
2022-11-05T01:04:19.443Z,100646.63
2022-11-05T01:07:57.027Z,100645.23
2022-11-05T01:11:40.048Z,100641.41
2022-11-05T01:15:13.245Z,100640.16
2022-11-05T01:18:50.222Z,100630.02
2022-11-05T01:22:30.514Z,100630.72
2022-11-05T01:26:03.678Z,100622.13
2022-11-05T01:29:42.083Z,100620.91
2022-11-05T01:33:20.413Z,100618.09
2022-11-05T01:36:58.405Z,100622.82
2022-11-05T01:40:36.588Z,100620.02
2022-11-05T01:44:51.017Z,100617.23
2022-11-05T01:48:19.564Z,100620.20
2022-11-05T01:51:39.110Z,100616.00
2022-11-05T01:55:18.036Z,100619.14
2022-11-05T01:59:03.073Z,100621.42
2022-11-05T02:02:33.297Z,100615.84
2022-11-05T02:06:12.981Z,100611.98
2022-11-05T02:09:53.609Z,100614.27
2022-11-05T02:13:25.467Z,100608.52
2022-11-05T02:17:22.638Z,100602.73
2022-11-05T02:21:07.360Z,100602.73
2022-11-05T02:24:47.708Z,100609.55
2022-11-05T02:29:22.856Z,100605.86
2022-11-05T02:32:58.245Z,100605.17
2022-11-05T02:36:34.574Z,100603.60
2022-11-05T02:40:00.057Z,100595.21
2022-11-05T02:44:29.104Z,100594.70
2022-11-05T02:47:39.961Z,100592.92
2022-11-05T02:51:43.070Z,100596.60
2022-11-05T02:55:05.411Z,100600.46
2022-11-05T02:58:40.534Z,100602.04
2022-11-05T03:02:11.147Z,100603.09
2022-11-05T03:06:22.367Z,100602.58
2022-11-05T03:09:43.859Z,100600.30
2022-11-05T03:13:22.428Z,100599.39
2022-11-05T03:17:25.280Z,100592.05
2022-11-05T03:20:35.863Z,100595.36
2022-11-05T03:24:30.930Z,100593.25
2022-11-05T03:27:52.147Z,100591.17
2022-11-05T03:31:28.733Z,100600.41
2022-11-05T03:35:11.862Z,100606.20
2022-11-05T03:38:47.582Z,100610.39
2022-11-05T03:42:23.496Z,100608.45
2022-11-05T03:46:09.295Z,100605.31
2022-11-05T03:49:44.055Z,100615.60
2022-11-05T03:53:33.898Z,100622.78
2022-11-05T03:56:56.892Z,100615.80
2022-11-05T04:00:28.791Z,100611.59
2022-11-05T04:04:14.868Z,100616.83
2022-11-05T04:08:03.978Z,100616.28
2022-11-05T04:11:39.145Z,100614.70
2022-11-05T04:14:58.679Z,100604.73
2022-11-05T04:18:40.090Z,100612.58
2022-11-05T04:22:32.511Z,100610.48
2022-11-05T04:26:49.295Z,100613.25
2022-11-05T04:30:22.124Z,100612.76
2022-11-05T04:33:59.803Z,100611.17
2022-11-05T04:37:36.251Z,100616.77
2022-11-05T04:41:20.336Z,100615.02
2022-11-05T04:44:50.656Z,100611.52
2022-11-05T04:48:59.773Z,100620.40
2022-11-05T04:52:37.220Z,100617.42
2022-11-05T04:56:19.306Z,100617.94
2022-11-05T04:59:55.565Z,100613.58
2022-11-05T05:03:30.978Z,100614.98
2022-11-05T05:07:06.977Z,100614.80
2022-11-05T05:10:47.278Z,100612.36
2022-11-05T05:14:22.289Z,100621.12
2022-11-05T05:18:00.903Z,100621.46
2022-11-05T05:21:44.762Z,100627.42
2022-11-05T05:25:17.257Z,100623.23
2022-11-05T05:28:52.810Z,100622.88
2022-11-05T05:33:07.859Z,100632.47
2022-11-05T05:36:39.611Z,100636.16
2022-11-05T05:40:49.445Z,100642.10
2022-11-05T05:44:27.004Z,100644.20
2022-11-05T05:48:05.766Z,100638.09
2022-11-05T05:51:41.468Z,100638.42
2022-11-05T05:55:20.381Z,100640.35
2022-11-05T05:58:57.498Z,100646.64
2022-11-05T06:02:37.663Z,100648.91
2022-11-05T06:06:16.658Z,100654.64
2022-11-05T06:09:50.315Z,100661.46
2022-11-05T06:13:28.366Z,100664.44
2022-11-05T06:17:06.592Z,100668.62
2022-11-05T06:20:51.611Z,100671.44
2022-11-05T06:24:22.325Z,100678.45
2022-11-05T06:27:58.589Z,100675.84
2022-11-05T06:31:36.677Z,100681.62
2022-11-05T06:35:13.319Z,100684.60
2022-11-05T06:38:50.998Z,100689.35
2022-11-05T06:42:39.322Z,100694.42
2022-11-05T06:46:05.995Z,100697.58
2022-11-05T06:49:44.656Z,100701.23
2022-11-05T06:53:23.833Z,100708.23
2022-11-05T06:57:03.605Z,100707.02
2022-11-05T07:00:38.610Z,100706.15
2022-11-05T07:04:22.487Z,100703.34
2022-11-05T07:07:54.673Z,100701.73
2022-11-05T07:11:33.915Z,100694.23
2022-11-05T07:15:10.552Z,100692.14
2022-11-05T07:18:46.632Z,100695.80
2022-11-05T07:22:24.717Z,100693.55
2022-11-05T07:25:59.964Z,100694.61
2022-11-05T07:30:15.794Z,100710.33
2022-11-05T07:33:48.106Z,100714.53
2022-11-05T07:37:26.298Z,100716.96
2022-11-05T07:41:08.276Z,100723.59
2022-11-05T07:44:41.750Z,100726.73
2022-11-05T07:48:24.714Z,100728.65
2022-11-05T07:51:59.154Z,100738.25
2022-11-05T07:55:38.261Z,100745.94
2022-11-05T07:59:15.302Z,100751.52
2022-11-05T08:03:07.102Z,100747.34
2022-11-05T08:06:33.958Z,100748.91
2022-11-05T08:10:07.570Z,100749.79
2022-11-05T08:13:46.143Z,100743.88
2022-11-05T08:17:22.115Z,100736.70
2022-11-05T08:20:58.203Z,100734.44
2022-11-05T08:24:34.058Z,100734.63
2022-11-05T08:28:16.983Z,100745.98
2022-11-05T08:31:50.706Z,100749.17
2022-11-05T08:35:29.206Z,100759.30
2022-11-05T08:39:10.646Z,100762.17
2022-11-05T08:42:45.752Z,100767.73
2022-11-05T08:46:25.174Z,100767.95
2022-11-05T08:49:59.841Z,100774.31
2022-11-05T08:53:38.611Z,100773.84
2022-11-05T08:57:19.947Z,100775.99
2022-11-05T09:00:56.078Z,100772.52
2022-11-05T09:04:29.594Z,100775.15
2022-11-05T09:08:11.804Z,100780.91
2022-11-05T09:12:10.738Z,100784.77
2022-11-05T09:15:18.112Z,100781.98
2022-11-05T09:18:53.558Z,100783.80
2022-11-05T09:22:53.785Z,100790.86
2022-11-05T09:26:53.312Z,100796.30
2022-11-05T09:30:53.886Z,100805.98
2022-11-05T09:34:30.710Z,100806.18
2022-11-05T09:38:55.391Z,100815.85
2022-11-05T09:42:14.345Z,100815.53
2022-11-05T09:45:49.765Z,100816.77
2022-11-05T09:49:54.535Z,100826.77
2022-11-05T09:53:55.327Z,100832.90
2022-11-05T09:58:02.099Z,100832.89
2022-11-05T10:02:12.269Z,100826.05
2022-11-05T10:06:18.817Z,100821.33
2022-11-05T10:10:48.708Z,100814.47
2022-11-05T10:15:10.774Z,100818.30
2022-11-05T10:19:16.646Z,100825.63
2022-11-05T10:23:21.670Z,100829.80
2022-11-05T10:27:36.472Z,100836.95
2022-11-05T10:31:39.033Z,100843.61
2022-11-05T10:35:48.504Z,100849.06
2022-11-05T10:39:49.260Z,100851.17
2022-11-05T10:43:58.317Z,100856.77
2022-11-05T10:48:07.161Z,100851.91
2022-11-05T10:52:37.220Z,100857.52
2022-11-05T10:56:40.030Z,100872.81
2022-11-05T11:00:40.057Z,100860.80
2022-11-05T11:04:40.438Z,100859.09
2022-11-05T11:08:40.209Z,100865.45
2022-11-05T11:12:44.308Z,100881.25
2022-11-05T11:16:51.620Z,100897.88
2022-11-05T11:20:50.670Z,100902.10
2022-11-05T11:24:54.121Z,100901.92
2022-11-05T11:29:05.964Z,100912.83
2022-11-05T11:33:13.127Z,100910.91
2022-11-05T11:36:47.635Z,100906.70
2022-11-05T11:40:47.500Z,100915.31
2022-11-05T11:44:49.258Z,100921.10
2022-11-05T11:48:50.104Z,100937.40
2022-11-05T11:52:49.649Z,100950.38
2022-11-05T11:56:49.355Z,100962.14
2022-11-05T12:01:02.552Z,100958.98
2022-11-05T12:05:02.046Z,100956.90
2022-11-05T12:09:29.476Z,100957.95
2022-11-05T12:14:25.922Z,100974.58
2022-11-05T12:18:57.900Z,100984.92
2022-11-05T12:23:54.243Z,100985.10
2022-11-05T12:27:06.098Z,100987.58
2022-11-05T12:31:36.336Z,100986.52
2022-11-05T12:36:03.975Z,100995.30
2022-11-05T12:40:42.234Z,101005.83
2022-11-05T12:44:52.051Z,101015.30
2022-11-05T12:48:57.970Z,101023.39
2022-11-05T12:53:14.374Z,101023.21
2022-11-05T12:57:17.430Z,101022.66
2022-11-05T13:01:27.474Z,101031.61
2022-11-05T13:06:08.859Z,101030.38
2022-11-05T13:10:27.485Z,101035.29
2022-11-05T13:14:29.834Z,101048.43
2022-11-05T13:19:00.523Z,101046.87
2022-11-05T13:23:38.106Z,101051.25
2022-11-05T13:28:04.308Z,101052.32
2022-11-05T13:32:27.076Z,101056.35
2022-11-05T13:36:51.840Z,101062.84
2022-11-05T13:41:23.805Z,101067.21
2022-11-05T13:45:30.525Z,101076.31
2022-11-05T13:50:11.268Z,101081.38
2022-11-05T13:54:14.726Z,101090.14
2022-11-05T13:58:47.385Z,101089.80
2022-11-05T14:02:53.780Z,101085.05
2022-11-05T14:06:55.389Z,101082.95
2022-11-05T14:11:33.799Z,101102.22
2022-11-05T14:15:33.900Z,101112.22
2022-11-05T14:20:10.037Z,101114.13
2022-11-05T14:24:23.358Z,101125.17
2022-11-05T14:28:35.680Z,101123.58
2022-11-05T14:32:46.221Z,101132.71
2022-11-05T14:37:03.727Z,101130.10
2022-11-05T14:41:04.151Z,101136.23
2022-11-05T14:45:27.347Z,101148.83
2022-11-05T14:49:31.839Z,101154.21
2022-11-05T14:53:34.399Z,101155.95
2022-11-05T14:57:55.491Z,101158.40
2022-11-05T15:02:21.016Z,101159.96
2022-11-05T15:05:39.807Z,101165.73
2022-11-05T15:09:45.450Z,101171.15
2022-11-05T15:14:01.687Z,101173.05
2022-11-05T15:18:06.268Z,101178.80
2022-11-05T15:22:12.964Z,101185.09
2022-11-05T15:26:38.482Z,101190.30
2022-11-05T15:30:38.585Z,101198.15
2022-11-05T15:34:38.985Z,101206.70
2022-11-05T15:38:56.671Z,101208.63
2022-11-05T15:43:20.475Z,101207.55
2022-11-05T15:47:28.227Z,101212.21
2022-11-05T15:51:27.980Z,101216.88
2022-11-05T15:55:55.453Z,101220.89
2022-11-05T15:59:32.857Z,101224.59
2022-11-05T16:03:35.996Z,101223.57
2022-11-05T16:07:36.229Z,101224.25
2022-11-05T16:11:35.939Z,101231.02
2022-11-05T16:15:36.502Z,101229.06
2022-11-05T16:19:40.910Z,101231.27
2022-11-05T16:23:53.484Z,101237.88
2022-11-05T16:27:54.374Z,101249.54
2022-11-05T16:32:02.460Z,101251.05
2022-11-05T16:35:46.312Z,101250.66
2022-11-05T16:39:46.440Z,101255.02
2022-11-05T16:43:55.992Z,101250.60
2022-11-05T16:47:56.120Z,101258.16
2022-11-05T16:51:55.825Z,101271.80
2022-11-05T16:56:03.096Z,101271.25
2022-11-05T16:59:34.182Z,101276.46
2022-11-05T17:03:33.772Z,101278.05
2022-11-05T17:07:53.254Z,101280.19
2022-11-05T17:11:21.750Z,101287.39
2022-11-05T17:15:39.584Z,101297.02
2022-11-05T17:19:42.775Z,101297.73
2022-11-05T17:23:42.737Z,101302.80
2022-11-05T17:27:42.111Z,101309.45
2022-11-05T17:31:42.109Z,101315.21
2022-11-05T17:35:42.628Z,101321.80
2022-11-05T17:39:43.466Z,101323.13
2022-11-05T17:43:45.569Z,101326.16
2022-11-05T17:47:21.774Z,101335.02
2022-11-05T18:02:53.078Z,101352.48
2022-11-05T18:06:01.837Z,101352.48
2022-11-05T18:10:00.866Z,101353.55
2022-11-05T18:14:00.125Z,101359.36
2022-11-05T18:24:35.690Z,101360.54
2022-11-05T18:28:39.724Z,101364.02
2022-11-05T18:32:44.216Z,101370.10
2022-11-05T18:36:21.859Z,101373.25
2022-11-05T18:40:20.976Z,101377.27
2022-11-05T18:44:38.897Z,101381.44
2022-11-05T18:48:38.395Z,101386.48
2022-11-05T18:52:38.166Z,101389.95
2022-11-05T18:56:37.573Z,101392.04
2022-11-05T19:00:39.809Z,101397.98
2022-11-05T19:04:39.882Z,101396.58
2022-11-05T19:08:39.736Z,101396.52
2022-11-05T19:12:39.079Z,101397.20
2022-11-05T19:16:38.817Z,101402.42
2022-11-05T19:20:39.021Z,101410.07
2022-11-05T19:24:52.504Z,101409.55
2022-11-05T19:28:52.964Z,101415.80
2022-11-05T19:32:52.763Z,101415.63
2022-11-05T19:36:52.837Z,101422.40
2022-11-05T19:40:52.943Z,101430.73
2022-11-05T19:44:51.942Z,101430.69
2022-11-05T19:48:52.988Z,101432.37
2022-11-05T19:52:54.500Z,101429.89
2022-11-05T19:56:53.416Z,101434.95
2022-11-05T20:00:55.804Z,101441.00
2022-11-05T20:04:54.764Z,101441.13
2022-11-05T20:13:49.259Z,101445.08
2022-11-05T20:17:08.179Z,101443.96
2022-11-05T20:21:09.326Z,101444.77
2022-11-05T20:25:09.391Z,101450.29
2022-11-05T20:29:23.497Z,101451.08
2022-11-05T20:33:22.282Z,101452.10
2022-11-05T20:37:21.037Z,101456.94
2022-11-05T20:41:20.135Z,101463.52
2022-11-05T20:45:20.897Z,101464.13
2022-11-05T20:48:56.925Z,101466.14
2022-11-05T20:53:10.108Z,101465.56
2022-11-05T20:57:08.773Z,101469.33
2022-11-05T21:01:08.350Z,101470.88
2022-11-05T21:05:08.417Z,101473.32
2022-11-05T21:09:07.246Z,101475.25
2022-11-05T21:13:05.732Z,101480.64
2022-11-05T21:17:04.776Z,101481.80
2022-11-05T21:21:05.354Z,101480.88
2022-11-05T21:25:04.416Z,101475.93
2022-11-05T21:29:17.223Z,101477.63
2022-11-05T21:33:16.932Z,101482.61
2022-11-05T21:37:15.993Z,101486.27
2022-11-05T21:41:14.743Z,101488.66
2022-11-05T21:45:14.263Z,101491.41
2022-11-05T21:49:14.751Z,101488.92
2022-11-05T21:53:33.412Z,101487.66
2022-11-05T21:57:51.495Z,101488.35
2022-11-05T22:01:50.647Z,101490.92
2022-11-05T22:05:49.557Z,101491.40
2022-11-05T22:09:48.606Z,101492.58
2022-11-05T22:13:47.510Z,101496.73
2022-11-05T22:17:47.463Z,101497.73
2022-11-05T22:21:46.876Z,101501.52
2022-11-05T22:25:45.433Z,101501.45
2022-11-05T22:29:46.275Z,101501.27
2022-11-05T22:33:45.390Z,101500.07
2022-11-05T22:37:44.622Z,101506.38
2022-11-05T22:41:44.038Z,101505.95
2022-11-05T22:45:44.139Z,101507.10
2022-11-05T22:49:43.477Z,101508.79
2022-11-05T22:53:43.063Z,101512.69
2022-11-05T22:57:42.651Z,101514.04
2022-11-05T23:01:43.172Z,101512.95
2022-11-05T23:05:42.068Z,101519.73
2022-11-05T23:09:59.691Z,101515.70
2022-11-05T23:13:58.831Z,101519.15
2022-11-05T23:18:16.567Z,101519.74
2022-11-05T23:22:34.579Z,101521.08
2022-11-05T23:26:56.476Z,101520.20
2022-11-05T23:31:14.395Z,101524.33
2022-11-05T23:35:13.691Z,101521.40
2022-11-05T23:39:12.593Z,101529.48
2022-11-05T23:43:30.279Z,101526.91
2022-11-05T23:47:48.107Z,101527.27
2022-11-05T23:51:47.281Z,101525.70
2022-11-05T23:55:45.918Z,101523.52
2022-11-05T23:59:44.646Z,101527.67
